createdAt,value
2022-10-16T00:01:36.342Z,3.23
2022-10-16T00:04:09.448Z,3.20
2022-10-16T00:06:41.430Z,3.00
2022-10-16T00:09:13.356Z,3.07
2022-10-16T00:11:45.323Z,3.00
2022-10-16T00:14:17.494Z,3.40
2022-10-16T00:16:49.411Z,3.30
2022-10-16T00:19:21.440Z,2.97
2022-10-16T00:21:53.407Z,2.73
2022-10-16T00:24:25.329Z,2.83
2022-10-16T00:26:57.245Z,2.73
2022-10-16T00:29:29.131Z,3.40
2022-10-16T00:32:01.027Z,3.03
2022-10-16T00:34:32.962Z,2.80
2022-10-16T00:37:05.218Z,2.73
2022-10-16T00:39:37.183Z,2.83
2022-10-16T00:42:17.281Z,2.70
2022-10-16T00:45:00.314Z,2.93
2022-10-16T00:47:56.638Z,2.47
2022-10-16T00:50:35.398Z,2.67
2022-10-16T00:53:07.413Z,2.83
2022-10-16T00:55:42.408Z,2.90
2022-10-16T00:58:14.693Z,2.40
2022-10-16T01:00:46.741Z,2.90
2022-10-16T01:03:33.123Z,2.77
2022-10-16T01:06:32.204Z,2.50
2022-10-16T01:09:44.352Z,2.70
2022-10-16T01:12:41.201Z,2.60
2022-10-16T01:16:09.255Z,3.00
2022-10-16T01:19:30.656Z,2.63
2022-10-16T01:22:04.453Z,2.30
2022-10-16T01:24:44.956Z,2.60
2022-10-16T01:27:28.255Z,3.07
2022-10-16T01:30:11.730Z,3.00
2022-10-16T01:33:03.630Z,2.50
2022-10-16T01:35:46.465Z,2.60
2022-10-16T01:38:35.438Z,2.67
2022-10-16T01:41:25.957Z,2.50
2022-10-16T01:44:17.887Z,2.30
2022-10-16T01:46:53.744Z,2.57
2022-10-16T01:49:32.417Z,2.40
2022-10-16T01:52:11.917Z,2.27
2022-10-16T01:54:48.582Z,2.33
2022-10-16T01:57:22.545Z,2.57
2022-10-16T01:59:59.659Z,2.20
2022-10-16T02:02:32.421Z,2.40
2022-10-16T02:05:33.556Z,2.30
2022-10-16T02:08:05.962Z,2.30
2022-10-16T02:10:39.316Z,2.40
2022-10-16T02:13:20.762Z,2.47
2022-10-16T02:15:52.807Z,2.17
2022-10-16T02:18:30.064Z,2.47
2022-10-16T02:21:29.720Z,2.53
2022-10-16T02:24:28.531Z,2.53
2022-10-16T02:27:19.341Z,2.60
2022-10-16T02:30:16.896Z,2.20
2022-10-16T02:32:51.208Z,2.40
2022-10-16T02:35:25.961Z,2.20
2022-10-16T02:37:59.162Z,2.30
2022-10-16T02:40:31.740Z,2.40
2022-10-16T02:43:06.481Z,2.37
2022-10-16T02:45:38.703Z,2.27
2022-10-16T02:48:10.649Z,2.00
2022-10-16T02:50:42.540Z,2.23
2022-10-16T02:53:14.462Z,2.30
2022-10-16T02:55:46.404Z,2.13
2022-10-16T02:58:18.338Z,2.30
2022-10-16T03:00:50.282Z,2.37
2022-10-16T03:03:22.550Z,2.33
2022-10-16T03:05:54.478Z,2.20
2022-10-16T03:08:26.360Z,2.40
2022-10-16T03:10:58.302Z,2.20
2022-10-16T03:13:30.324Z,2.50
2022-10-16T03:16:02.280Z,2.50
2022-10-16T03:18:34.231Z,2.13
2022-10-16T03:21:06.168Z,2.40
2022-10-16T03:23:38.199Z,2.40
2022-10-16T03:26:10.094Z,2.50
2022-10-16T03:28:42.069Z,2.40
2022-10-16T03:31:14.073Z,2.50
2022-10-16T03:33:45.972Z,2.40
2022-10-16T03:36:17.831Z,2.13
2022-10-16T03:38:49.810Z,2.70
2022-10-16T03:41:21.743Z,2.77
2022-10-16T03:43:53.648Z,2.67
2022-10-16T03:46:25.658Z,2.53
2022-10-16T03:48:57.564Z,2.50
2022-10-16T03:51:29.473Z,2.50
2022-10-16T03:54:01.407Z,1.90
2022-10-16T03:56:33.400Z,2.10
2022-10-16T03:59:05.476Z,2.10
2022-10-16T04:01:37.347Z,2.10
2022-10-16T04:04:09.603Z,1.87
2022-10-16T04:06:41.492Z,2.20
2022-10-16T04:09:13.572Z,2.10
2022-10-16T04:11:45.527Z,2.30
2022-10-16T04:14:17.445Z,2.07
2022-10-16T04:16:49.339Z,2.20
2022-10-16T04:19:21.212Z,2.43
2022-10-16T04:21:53.257Z,2.23
2022-10-16T04:24:25.144Z,2.10
2022-10-16T04:26:57.123Z,2.30
2022-10-16T04:29:29.173Z,2.37
2022-10-16T04:32:01.047Z,2.70
2022-10-16T04:34:33.176Z,2.27
2022-10-16T04:37:05.115Z,2.33
2022-10-16T04:39:37.026Z,2.43
2022-10-16T04:42:09.013Z,2.30
2022-10-16T04:44:40.925Z,2.10
2022-10-16T04:47:14.349Z,2.40
2022-10-16T04:49:46.303Z,2.30
2022-10-16T04:52:19.922Z,2.40
2022-10-16T04:54:52.079Z,2.10
2022-10-16T04:57:24.331Z,2.70
2022-10-16T04:59:56.608Z,2.40
2022-10-16T05:02:28.902Z,2.43
2022-10-16T05:05:00.895Z,2.67
2022-10-16T05:07:32.856Z,2.60
2022-10-16T05:10:05.443Z,2.70
2022-10-16T05:12:37.352Z,2.70
2022-10-16T05:15:10.287Z,2.70
2022-10-16T05:17:44.597Z,3.03
2022-10-16T05:20:16.872Z,3.00
2022-10-16T05:22:49.213Z,3.00
2022-10-16T05:25:21.337Z,3.13
2022-10-16T05:27:53.315Z,2.90
2022-10-16T05:30:25.287Z,3.00
2022-10-16T05:32:57.231Z,3.00
2022-10-16T05:35:29.088Z,3.03
2022-10-16T05:38:01.025Z,3.00
2022-10-16T05:40:32.911Z,2.73
2022-10-16T05:43:04.854Z,2.97
2022-10-16T05:45:36.715Z,3.00
2022-10-16T05:48:08.660Z,2.87
2022-10-16T05:50:40.584Z,3.30
2022-10-16T05:53:12.502Z,3.10
2022-10-16T05:55:44.396Z,2.80
2022-10-16T05:58:16.279Z,2.73
2022-10-16T06:01:02.858Z,2.80
2022-10-16T06:03:35.409Z,3.00
2022-10-16T06:06:23.819Z,3.00
2022-10-16T06:08:57.346Z,2.70
2022-10-16T06:11:33.252Z,2.73
2022-10-16T06:14:07.970Z,2.77
2022-10-16T06:16:40.009Z,2.80
2022-10-16T06:19:11.966Z,3.20
2022-10-16T06:21:44.318Z,2.90
2022-10-16T06:24:16.241Z,3.00
2022-10-16T06:26:48.183Z,2.60
2022-10-16T06:29:20.183Z,3.03
2022-10-16T06:31:52.213Z,2.90
2022-10-16T06:34:24.194Z,2.97
2022-10-16T06:36:56.380Z,3.03
2022-10-16T06:39:28.291Z,2.90
2022-10-16T06:44:36.969Z,2.90
2022-10-16T06:47:08.839Z,3.13
2022-10-16T06:49:40.752Z,3.60
2022-10-16T06:52:12.823Z,2.90
2022-10-16T06:54:44.736Z,3.13
2022-10-16T06:57:17.098Z,3.00
2022-10-16T06:59:52.111Z,3.03
2022-10-16T07:02:26.645Z,2.90
2022-10-16T07:04:59.231Z,3.00
2022-10-16T07:07:31.088Z,3.00
2022-10-16T07:10:03.275Z,2.70
2022-10-16T07:12:35.204Z,3.00
2022-10-16T07:15:07.784Z,2.67
2022-10-16T07:17:39.717Z,2.70
2022-10-16T07:20:11.679Z,2.70
2022-10-16T07:22:43.595Z,2.73
2022-10-16T07:25:15.660Z,2.87
2022-10-16T07:27:47.794Z,2.60
2022-10-16T07:30:20.103Z,2.60
2022-10-16T07:32:52.022Z,2.57
2022-10-16T07:35:23.982Z,2.33
2022-10-16T07:37:55.925Z,2.50
2022-10-16T07:40:28.196Z,2.70
2022-10-16T07:43:00.114Z,2.27
2022-10-16T07:45:32.017Z,2.30
2022-10-16T07:48:04.169Z,2.07
2022-10-16T07:50:36.112Z,1.70
2022-10-16T07:53:08.432Z,1.90
2022-10-16T07:55:40.653Z,2.27
2022-10-16T07:58:12.604Z,1.70
2022-10-16T08:00:44.529Z,1.97
2022-10-16T08:03:16.440Z,1.80
2022-10-16T08:05:48.772Z,1.70
2022-10-16T08:08:21.196Z,1.77
2022-10-16T08:10:53.338Z,2.00
2022-10-16T08:13:25.452Z,2.07
2022-10-16T08:15:57.444Z,1.77
2022-10-16T08:18:29.393Z,2.00
2022-10-16T08:21:01.428Z,1.60
2022-10-16T08:23:35.077Z,1.80
2022-10-16T08:26:09.193Z,1.60
2022-10-16T08:28:41.368Z,1.70
2022-10-16T08:33:49.283Z,1.70
2022-10-16T08:36:21.506Z,1.80
2022-10-16T08:38:55.333Z,1.87
2022-10-16T08:42:25.316Z,2.00
2022-10-16T08:45:34.257Z,1.90
2022-10-16T08:48:30.609Z,1.80
2022-10-16T08:51:05.225Z,1.70
2022-10-16T08:53:55.501Z,2.10
2022-10-16T08:56:27.585Z,1.70
2022-10-16T08:59:02.386Z,1.80
2022-10-16T09:01:50.587Z,2.17
2022-10-16T09:04:57.034Z,1.70
2022-10-16T09:07:55.793Z,1.80
2022-10-16T09:11:19.123Z,1.87
2022-10-16T09:14:18.475Z,2.03
2022-10-16T09:17:27.020Z,1.73
2022-10-16T09:20:27.454Z,1.90
2022-10-16T09:23:05.237Z,1.70
2022-10-16T09:25:40.681Z,1.83
2022-10-16T09:28:12.820Z,1.67
2022-10-16T09:30:46.242Z,1.97
2022-10-16T09:33:23.344Z,2.20
2022-10-16T09:35:59.786Z,1.87
2022-10-16T09:38:37.989Z,1.87
2022-10-16T09:41:22.072Z,2.03
2022-10-16T09:44:01.140Z,2.10
2022-10-16T09:46:36.952Z,2.10
2022-10-16T09:49:27.938Z,1.63
2022-10-16T09:52:16.563Z,1.93
2022-10-16T09:54:53.434Z,2.40
2022-10-16T09:57:26.700Z,1.80
2022-10-16T09:59:59.922Z,1.90
2022-10-16T10:02:39.067Z,1.90
2022-10-16T10:05:30.858Z,2.07
2022-10-16T10:08:07.139Z,2.10
2022-10-16T10:10:44.349Z,2.00
2022-10-16T10:13:25.227Z,1.97
2022-10-16T10:15:57.192Z,2.00
2022-10-16T10:18:29.101Z,2.00
2022-10-16T10:23:40.201Z,2.43
2022-10-16T10:26:29.033Z,2.17
2022-10-16T10:29:26.237Z,2.43
2022-10-16T10:32:10.677Z,2.17
2022-10-16T10:35:26.021Z,2.53
2022-10-16T10:38:24.618Z,2.33
2022-10-16T10:41:27.909Z,2.13
2022-10-16T10:44:24.953Z,1.90
2022-10-16T10:47:35.704Z,2.00
2022-10-16T10:50:17.202Z,2.40
2022-10-16T10:53:07.155Z,2.33
2022-10-16T10:56:01.357Z,2.17
2022-10-16T10:59:17.319Z,1.97
2022-10-16T11:02:25.644Z,2.40
2022-10-16T11:05:33.963Z,2.10
2022-10-16T11:08:14.743Z,2.40
2022-10-16T11:11:01.185Z,2.17
2022-10-16T11:13:55.631Z,2.63
2022-10-16T11:16:37.898Z,2.00
2022-10-16T11:19:38.270Z,2.27
2022-10-16T11:22:40.611Z,2.30
2022-10-16T11:25:32.921Z,2.10
2022-10-16T11:28:31.787Z,2.23
2022-10-16T11:31:18.592Z,2.30
2022-10-16T11:34:12.980Z,2.00
2022-10-16T11:37:15.399Z,2.20
2022-10-16T11:39:48.441Z,2.30
2022-10-16T11:42:40.907Z,2.07
2022-10-16T11:45:43.723Z,2.30
2022-10-16T11:48:57.198Z,1.90
2022-10-16T11:51:41.950Z,2.23
2022-10-16T11:54:35.372Z,2.00
2022-10-16T11:57:39.971Z,2.00
2022-10-16T12:00:28.405Z,2.10
2022-10-16T12:04:00.320Z,2.00
2022-10-16T12:07:08.249Z,1.70
2022-10-16T12:09:42.477Z,2.23
2022-10-16T12:12:37.869Z,2.10
2022-10-16T12:15:57.706Z,2.10
2022-10-16T12:18:26.554Z,2.10
2022-10-16T12:21:05.381Z,1.83
2022-10-16T12:23:57.036Z,1.60
2022-10-16T12:26:40.495Z,1.93
2022-10-16T12:29:24.261Z,2.00
2022-10-16T12:31:58.289Z,1.70
2022-10-16T12:34:44.440Z,1.93
2022-10-16T12:37:32.074Z,1.50
2022-10-16T12:40:37.373Z,2.27
2022-10-16T12:43:28.982Z,1.90
2022-10-16T12:46:40.646Z,1.77
2022-10-16T12:49:16.597Z,1.73
2022-10-16T12:51:48.851Z,1.77
2022-10-16T12:54:31.658Z,1.90
2022-10-16T12:57:59.472Z,1.50
2022-10-16T13:00:48.638Z,1.43
2022-10-16T13:03:51.258Z,1.53
2022-10-16T13:07:09.673Z,1.73
2022-10-16T13:09:54.965Z,1.60
2022-10-16T13:13:01.188Z,1.70
2022-10-16T13:15:55.001Z,1.40
2022-10-16T13:18:48.747Z,1.40
2022-10-16T13:21:39.832Z,1.57
2022-10-16T13:24:35.153Z,1.53
2022-10-16T13:27:29.505Z,1.60
2022-10-16T13:30:28.257Z,1.67
2022-10-16T13:33:08.746Z,1.50
2022-10-16T13:35:58.098Z,2.00
2022-10-16T13:38:37.042Z,2.67
2022-10-16T13:41:18.870Z,1.67
2022-10-16T13:43:57.087Z,2.10
2022-10-16T13:46:30.710Z,1.63
2022-10-16T13:49:14.304Z,5.97
2022-10-16T13:52:01.059Z,1.90
2022-10-16T13:54:33.020Z,1.80
2022-10-16T13:57:26.347Z,1.90
2022-10-16T13:59:59.368Z,1.40
2022-10-16T14:02:41.419Z,1.60
2022-10-16T14:05:15.902Z,1.50
2022-10-16T14:07:52.625Z,1.50
2022-10-16T14:10:34.549Z,1.33
2022-10-16T14:13:09.292Z,1.70
2022-10-16T14:15:41.295Z,1.60
2022-10-16T14:18:22.892Z,1.50
2022-10-16T14:20:57.407Z,1.70
2022-10-16T14:23:40.214Z,1.40
2022-10-16T14:26:14.253Z,1.40
2022-10-16T14:28:48.355Z,1.43
2022-10-16T14:31:34.956Z,1.30
2022-10-16T14:34:37.918Z,1.47
2022-10-16T14:37:29.669Z,1.63
2022-10-16T14:40:04.618Z,1.47
2022-10-16T14:42:36.581Z,1.40
2022-10-16T14:45:12.755Z,1.43
2022-10-16T14:47:54.563Z,1.73
2022-10-16T14:50:26.580Z,1.70
2022-10-16T14:53:00.161Z,1.43
2022-10-16T14:55:32.053Z,1.53
2022-10-16T14:58:04.088Z,1.77
2022-10-16T15:00:36.226Z,1.50
2022-10-16T15:03:08.205Z,1.33
2022-10-16T15:05:40.122Z,1.50
2022-10-16T15:08:13.337Z,1.57
2022-10-16T15:10:45.609Z,8.47
2022-10-16T15:13:17.471Z,2.00
2022-10-16T15:15:50.313Z,2.30
2022-10-16T15:18:23.137Z,2.60
2022-10-16T15:20:55.225Z,1.70
2022-10-16T15:26:03.993Z,1.60
2022-10-16T15:28:36.790Z,1.60
2022-10-16T15:31:08.846Z,1.50
2022-10-16T15:33:40.773Z,1.63
2022-10-16T15:36:12.835Z,1.37
2022-10-16T15:38:45.084Z,1.30
2022-10-16T15:41:16.986Z,1.67
2022-10-16T15:43:52.652Z,1.70
2022-10-16T15:46:25.624Z,1.40
2022-10-16T15:48:59.592Z,1.60
2022-10-16T15:51:33.996Z,1.70
2022-10-16T15:54:06.661Z,1.40
2022-10-16T15:56:38.760Z,1.60
2022-10-16T15:59:10.663Z,1.80
2022-10-16T16:01:42.733Z,1.70
2022-10-16T16:04:31.806Z,1.60
2022-10-16T16:07:08.339Z,1.70
2022-10-16T16:09:40.332Z,1.90
2022-10-16T16:12:12.262Z,1.50
2022-10-16T16:14:47.047Z,1.90
2022-10-16T16:17:19.223Z,2.00
2022-10-16T16:19:52.034Z,3.33
2022-10-16T16:22:23.972Z,3.00
2022-10-16T16:24:55.891Z,3.10
2022-10-16T16:27:30.021Z,2.50
2022-10-16T16:30:04.632Z,2.27
2022-10-16T16:32:36.582Z,2.47
2022-10-16T16:35:08.666Z,2.70
2022-10-16T16:37:40.540Z,2.70
2022-10-16T16:40:12.629Z,2.20
2022-10-16T16:42:44.773Z,5.73
2022-10-16T16:45:16.883Z,5.72
2022-10-16T16:47:48.800Z,6.60
2022-10-16T16:50:20.694Z,5.33
2022-10-16T16:52:52.632Z,7.33
2022-10-16T16:55:24.614Z,8.53
2022-10-16T16:57:57.719Z,7.43
2022-10-16T17:00:29.858Z,6.57
2022-10-16T17:03:01.848Z,6.80
2022-10-16T17:05:33.758Z,5.20
2022-10-16T17:08:09.373Z,3.80
2022-10-16T17:10:45.207Z,3.00
2022-10-16T17:13:17.387Z,2.70
2022-10-16T17:15:51.279Z,7.63
2022-10-16T17:18:24.908Z,10.10
2022-10-16T17:21:00.827Z,13.20
2022-10-16T17:23:34.631Z,15.60
2022-10-16T17:26:13.603Z,13.13
2022-10-16T17:28:46.033Z,6.07
2022-10-16T17:31:26.269Z,5.43
2022-10-16T17:34:05.692Z,4.00
2022-10-16T17:36:43.869Z,3.53
2022-10-16T17:39:18.118Z,2.90
2022-10-16T17:41:50.121Z,2.80
2022-10-16T17:44:22.490Z,2.70
2022-10-16T17:46:54.685Z,2.70
2022-10-16T17:49:26.594Z,2.65
2022-10-16T17:52:01.804Z,2.90
2022-10-16T17:54:33.760Z,2.70
2022-10-16T17:57:05.680Z,2.70
2022-10-16T17:59:37.795Z,2.80
2022-10-16T18:02:12.544Z,3.13
2022-10-16T18:04:44.675Z,2.90
2022-10-16T18:07:17.014Z,3.47
2022-10-16T18:10:10.612Z,14.23
2022-10-16T18:12:41.086Z,7.50
2022-10-16T18:15:13.102Z,6.33
2022-10-16T18:17:45.102Z,4.10
2022-10-16T18:20:16.994Z,3.90
2022-10-16T18:22:48.941Z,4.00
2022-10-16T18:25:21.012Z,3.90
2022-10-16T18:27:52.918Z,4.10
2022-10-16T18:30:24.964Z,3.93
2022-10-16T18:32:56.873Z,3.70
2022-10-16T18:35:28.723Z,4.10
2022-10-16T18:38:00.771Z,4.30
2022-10-16T18:40:32.693Z,4.30
2022-10-16T18:43:04.698Z,4.50
2022-10-16T18:45:36.602Z,4.20
2022-10-16T18:48:08.979Z,4.53
2022-10-16T18:50:40.908Z,4.07
2022-10-16T18:53:12.834Z,4.60
2022-10-16T18:55:51.595Z,5.00
2022-10-16T18:58:23.511Z,4.90
2022-10-16T19:00:55.446Z,5.03
2022-10-16T19:03:27.600Z,4.50
2022-10-16T19:06:05.661Z,5.17
2022-10-16T19:08:39.019Z,4.00
2022-10-16T19:11:21.733Z,4.10
2022-10-16T19:13:57.421Z,4.10
2022-10-16T19:16:33.034Z,4.40
2022-10-16T19:19:08.405Z,4.10
2022-10-16T19:21:43.660Z,3.87
2022-10-16T19:24:16.744Z,8.47
2022-10-16T19:26:48.691Z,5.30
2022-10-16T19:29:20.610Z,4.83
2022-10-16T19:31:52.525Z,4.93
2022-10-16T19:34:24.749Z,4.20
2022-10-16T19:36:56.965Z,4.27
2022-10-16T19:39:29.025Z,4.00
2022-10-16T19:42:00.978Z,4.27
2022-10-16T19:44:32.991Z,4.03
2022-10-16T19:47:05.097Z,4.30
2022-10-16T19:49:37.106Z,4.77
2022-10-16T19:52:09.072Z,5.27
2022-10-16T19:54:41.074Z,5.13
2022-10-16T19:57:13.174Z,5.90
2022-10-16T19:59:45.857Z,5.33
2022-10-16T20:02:17.839Z,5.23
2022-10-16T20:04:49.748Z,5.20
2022-10-16T20:07:22.993Z,5.47
2022-10-16T20:09:54.841Z,5.30
2022-10-16T20:12:26.762Z,5.27
2022-10-16T20:14:58.673Z,5.43
2022-10-16T20:17:30.791Z,5.97
2022-10-16T20:20:02.849Z,6.80
2022-10-16T20:22:34.803Z,6.27
2022-10-16T20:25:10.011Z,6.53
2022-10-16T20:27:42.205Z,7.13
2022-10-16T20:30:14.192Z,7.40
2022-10-16T20:32:46.197Z,6.07
2022-10-16T20:35:18.336Z,6.40
2022-10-16T20:37:50.621Z,6.60
2022-10-16T20:40:22.549Z,6.40
2022-10-16T20:42:54.463Z,6.07
2022-10-16T20:45:26.358Z,6.10
2022-10-16T20:47:59.286Z,6.50
2022-10-16T20:50:32.361Z,7.90
2022-10-16T20:53:04.457Z,7.17
2022-10-16T20:55:38.217Z,7.00
2022-10-16T20:58:10.188Z,6.20
2022-10-16T21:00:42.148Z,6.40
2022-10-16T21:03:14.066Z,5.70
2022-10-16T21:05:45.964Z,6.40
2022-10-16T21:08:17.855Z,6.33
2022-10-16T21:10:49.716Z,6.10
2022-10-16T21:13:21.708Z,6.10
2022-10-16T21:15:53.669Z,6.40
2022-10-16T21:18:27.277Z,6.00
2022-10-16T21:20:59.239Z,5.70
2022-10-16T21:23:32.645Z,6.17
2022-10-16T21:26:04.902Z,6.07
2022-10-16T21:28:36.818Z,5.60
2022-10-16T21:31:15.919Z,6.30
2022-10-16T21:33:48.706Z,6.03
2022-10-16T21:36:27.343Z,6.47
2022-10-16T21:39:20.609Z,6.33
2022-10-16T21:41:52.783Z,6.50
2022-10-16T21:44:24.850Z,6.27
2022-10-16T21:46:56.763Z,6.27
2022-10-16T21:49:28.780Z,6.27
2022-10-16T21:52:00.718Z,5.97
2022-10-16T21:54:32.655Z,6.10
2022-10-16T21:59:41.470Z,6.30
2022-10-16T22:02:13.345Z,6.10
2022-10-16T22:04:45.245Z,6.20
2022-10-16T22:07:17.204Z,6.00
2022-10-16T22:09:49.086Z,6.40
2022-10-16T22:12:21.000Z,6.07
2022-10-16T22:14:52.926Z,6.20
2022-10-16T22:17:25.135Z,6.30
2022-10-16T22:19:57.205Z,6.80
2022-10-16T22:22:29.076Z,6.63
2022-10-16T22:25:01.044Z,7.10
2022-10-16T22:27:32.933Z,6.73
2022-10-16T22:30:05.510Z,6.90
2022-10-16T22:32:37.567Z,7.20
2022-10-16T22:35:11.593Z,6.93
2022-10-16T22:37:43.587Z,6.63
2022-10-16T22:40:15.566Z,6.83
2022-10-16T22:45:20.274Z,6.93
2022-10-16T22:47:52.154Z,6.67
2022-10-16T22:50:24.595Z,6.10
2022-10-16T22:52:57.256Z,6.50
2022-10-16T22:55:29.178Z,6.67
2022-10-16T22:58:01.022Z,6.70
2022-10-16T23:00:32.980Z,6.47
2022-10-16T23:03:04.994Z,6.80
2022-10-16T23:05:42.207Z,6.60
2022-10-16T23:08:14.370Z,6.60
2022-10-16T23:10:49.820Z,6.50
2022-10-16T23:13:21.673Z,6.67
2022-10-16T23:15:53.648Z,6.67
2022-10-16T23:18:25.617Z,6.97
2022-10-16T23:20:57.503Z,6.97
2022-10-16T23:23:29.412Z,7.10
2022-10-16T23:26:01.421Z,6.73
2022-10-16T23:28:33.423Z,6.63
2022-10-16T23:31:07.201Z,6.80
2022-10-16T23:33:39.783Z,6.73
2022-10-16T23:36:15.947Z,6.40
2022-10-16T23:38:49.662Z,6.30
2022-10-16T23:41:22.155Z,6.30
2022-10-16T23:43:54.237Z,6.20
2022-10-16T23:46:26.228Z,6.10
2022-10-16T23:48:58.562Z,6.37
2022-10-16T23:51:30.458Z,6.20
2022-10-16T23:54:02.347Z,5.93
2022-10-16T23:56:34.226Z,6.17
2022-10-16T23:59:06.081Z,6.13
